Time;durP1;ratioP1;P1;durP2;ratioP2;P2;SDS_P1;SDS_P2;PMS_P1;PMS_P2;Temp;Humidity;BMP_temperature;BMP_pressure;BME280_temperature;BME280_humidity;BME280_pressure;Samples;Min_cycle;Max_cycle;Signal;HPM_P1;HPM_P2
2023/05/12 00:00:32;;;;;;;20.98;9.63;;;11.00;99.90;;;;;;4979323;28;20052;-79
2023/05/12 00:03:18;;;;;;;16.42;8.65;;;11.00;99.90;;;;;;5011601;28;20135;-78
2023/05/12 00:06:05;;;;;;;18.65;8.25;;;11.00;99.90;;;;;;5011124;28;20046;-79
2023/05/12 00:08:52;;;;;;;16.00;7.22;;;11.00;99.90;;;;;;4992132;28;20136;-78
2023/05/12 00:11:38;;;;;;;24.05;8.00;;;11.00;99.90;;;;;;4997012;28;20414;-79
2023/05/12 00:14:24;;;;;;;20.17;9.68;;;11.00;99.90;;;;;;5010369;28;20061;-79
2023/05/12 00:17:14;;;;;;;28.48;10.70;;;11.00;99.90;;;;;;4980639;28;20052;-79
2023/05/12 00:20:02;;;;;;;21.75;8.95;;;11.00;99.90;;;;;;4996307;28;20097;-79
2023/05/12 00:22:48;;;;;;;30.60;11.02;;;11.00;99.90;;;;;;4974045;28;20061;-79
2023/05/12 00:25:34;;;;;;;28.52;11.15;;;11.00;99.90;;;;;;4992331;28;20454;-79
2023/05/12 00:28:20;;;;;;;26.33;11.25;;;11.00;99.90;;;;;;4967367;28;20053;-80
2023/05/12 00:31:07;;;;;;;32.53;10.68;;;11.00;99.90;;;;;;4994234;28;20061;-80
2023/05/12 00:33:53;;;;;;;31.88;11.77;;;11.10;99.90;;;;;;4979813;28;20486;-80
2023/05/12 00:36:39;;;;;;;26.63;11.32;;;11.10;99.90;;;;;;4993208;28;20414;-80
2023/05/12 00:39:25;;;;;;;31.77;10.90;;;11.10;99.90;;;;;;4992821;28;20104;-80
2023/05/12 00:42:11;;;;;;;23.75;10.18;;;11.10;99.90;;;;;;4995267;28;20138;-79
2023/05/12 00:44:57;;;;;;;28.98;11.60;;;11.10;99.90;;;;;;5009675;28;20050;-79
2023/05/12 00:47:45;;;;;;;27.33;12.45;;;11.10;99.90;;;;;;5010646;28;20057;-80
2023/05/12 00:50:31;;;;;;;26.27;11.43;;;11.10;99.90;;;;;;4978912;28;20058;-80
2023/05/12 00:53:17;;;;;;;36.85;14.13;;;11.10;99.90;;;;;;4992408;28;20053;-79
2023/05/12 00:56:04;;;;;;;29.60;14.85;;;11.10;99.90;;;;;;4991946;28;20493;-80
2023/05/12 00:58:50;;;;;;;41.67;15.77;;;11.10;99.90;;;;;;4992212;28;20100;-80
2023/05/12 01:01:37;;;;;;;39.95;15.45;;;11.10;99.90;;;;;;5010685;28;20387;-80
2023/05/12 01:04:23;;;;;;;33.50;14.82;;;11.10;99.90;;;;;;4978324;28;20052;-79
2023/05/12 01:07:18;;;;;;;36.08;13.07;;;11.10;99.90;;;;;;4992242;28;20061;-79
2023/05/12 01:10:15;;;;;;;36.83;13.10;;;11.10;99.90;;;;;;4978429;28;20062;-79
2023/05/12 01:13:01;;;;;;;26.73;11.70;;;11.10;99.90;;;;;;4966415;28;20146;-79
2023/05/12 01:15:50;;;;;;;29.63;11.60;;;11.10;99.90;;;;;;4991663;28;20057;-80
2023/05/12 01:18:39;;;;;;;28.48;11.10;;;11.10;99.90;;;;;;5009693;28;20514;-80
2023/05/12 01:21:25;;;;;;;30.15;12.07;;;11.10;99.90;;;;;;5009472;28;20115;-79
2023/05/12 01:24:13;;;;;;;27.20;12.43;;;11.20;99.90;;;;;;4992000;28;20054;-79
2023/05/12 01:27:00;;;;;;;28.17;12.23;;;11.20;99.90;;;;;;5009390;28;20042;-80
2023/05/12 01:29:50;;;;;;;31.30;13.43;;;11.20;99.90;;;;;;4991797;28;20453;-80
2023/05/12 01:32:39;;;;;;;31.73;13.60;;;11.20;99.90;;;;;;4995589;28;20068;-79
2023/05/12 01:35:28;;;;;;;40.70;14.95;;;11.20;99.90;;;;;;4978767;28;20045;-80
2023/05/12 01:38:14;;;;;;;41.08;12.95;;;11.20;99.90;;;;;;4981507;28;20054;-79
2023/05/12 01:41:01;;;;;;;36.17;13.00;;;11.30;99.90;;;;;;4992835;28;20058;-79
2023/05/12 01:43:48;;;;;;;34.88;13.32;;;11.30;99.90;;;;;;4992633;28;20089;-80
2023/05/12 01:46:35;;;;;;;31.95;13.50;;;11.30;99.90;;;;;;4992716;28;20112;-79
2023/05/12 01:49:21;;;;;;;28.70;13.40;;;11.20;99.90;;;;;;4991173;28;20066;-78
2023/05/12 01:52:07;;;;;;;29.77;13.82;;;11.20;99.90;;;;;;5009280;28;20054;-79
2023/05/12 01:54:54;;;;;;;30.02;14.00;;;11.20;99.90;;;;;;4991635;28;20058;-79
2023/05/12 01:57:40;;;;;;;43.80;17.33;;;11.20;99.90;;;;;;4978475;28;20525;-80
2023/05/12 02:00:28;;;;;;;37.97;16.25;;;11.20;99.90;;;;;;4978605;28;20490;-78
2023/05/12 02:03:14;;;;;;;44.45;15.63;;;11.20;99.90;;;;;;5010268;28;20061;-78
2023/05/12 02:06:00;;;;;;;36.97;16.17;;;11.20;99.90;;;;;;5013200;28;20053;-78
2023/05/12 02:08:46;;;;;;;38.83;16.70;;;11.30;99.90;;;;;;5013724;28;20061;-79
2023/05/12 02:11:32;;;;;;;42.08;15.80;;;11.30;99.90;;;;;;4996297;28;20100;-79
2023/05/12 02:14:18;;;;;;;39.25;17.55;;;11.30;99.90;;;;;;4995578;28;20053;-79
2023/05/12 02:17:04;;;;;;;46.40;19.10;;;11.30;99.90;;;;;;4995105;28;20144;-79
2023/05/12 02:19:51;;;;;;;43.95;17.63;;;11.30;99.90;;;;;;5013398;28;20057;-78
2023/05/12 02:22:37;;;;;;;46.05;18.42;;;11.30;99.90;;;;;;5011725;28;20144;-80
2023/05/12 02:25:23;;;;;;;45.35;18.83;;;11.30;99.90;;;;;;5012829;28;20046;-79
2023/05/12 02:28:10;;;;;;;49.03;18.50;;;11.30;99.90;;;;;;4995875;28;20116;-79
2023/05/12 02:30:56;;;;;;;54.80;21.17;;;11.30;99.90;;;;;;5013118;28;20085;-78
2023/05/12 02:33:42;;;;;;;53.13;21.10;;;11.40;99.90;;;;;;4996077;28;20046;-79
2023/05/12 02:36:28;;;;;;;53.85;22.88;;;11.30;99.90;;;;;;4995810;28;20054;-79
2023/05/12 02:39:15;;;;;;;50.97;20.75;;;11.30;99.90;;;;;;5013884;28;20053;-79
2023/05/12 02:42:01;;;;;;;51.67;22.05;;;11.40;99.90;;;;;;4995222;28;20136;-79
2023/05/12 02:44:48;;;;;;;55.65;23.30;;;11.40;99.90;;;;;;4995878;28;20056;-79
2023/05/12 02:47:35;;;;;;;56.88;24.13;;;11.40;99.90;;;;;;5012176;28;20046;-80
2023/05/12 02:50:21;;;;;;;66.45;26.00;;;11.40;99.90;;;;;;4995895;28;20061;-79
2023/05/12 02:53:08;;;;;;;66.90;26.77;;;11.40;99.90;;;;;;5012828;28;20168;-80
2023/05/12 02:55:54;;;;;;;75.97;28.83;;;11.50;99.90;;;;;;4982328;28;20517;-80
2023/05/12 02:58:41;;;;;;;67.60;25.98;;;11.50;99.90;;;;;;4982317;28;20100;-80
2023/05/12 03:01:27;;;;;;;78.05;26.38;;;11.50;99.90;;;;;;4981846;28;20085;-80
2023/05/12 03:04:13;;;;;;;72.63;28.00;;;11.50;99.90;;;;;;4994217;28;20085;-79
2023/05/12 03:06:59;;;;;;;62.05;26.20;;;11.50;99.90;;;;;;4981155;28;20066;-79
2023/05/12 03:09:45;;;;;;;65.70;26.92;;;11.50;99.90;;;;;;4994092;28;20749;-79
2023/05/12 03:12:31;;;;;;;77.13;27.58;;;11.50;99.90;;;;;;4982000;28;20054;-78
2023/05/12 03:15:17;;;;;;;73.03;29.65;;;11.50;99.90;;;;;;4994076;28;20049;-78
2023/05/12 03:18:05;;;;;;;74.65;27.48;;;11.50;99.90;;;;;;5012285;28;20050;-80
2023/05/12 03:20:54;;;;;;;72.38;28.88;;;11.50;99.90;;;;;;4994577;28;20054;-80
2023/05/12 03:23:40;;;;;;;73.55;26.73;;;11.50;99.90;;;;;;4984296;28;20061;-80
2023/05/12 03:26:30;;;;;;;77.47;27.98;;;11.50;99.90;;;;;;5012614;28;20418;-80
2023/05/12 03:29:16;;;;;;;76.30;27.40;;;11.50;99.90;;;;;;4994414;28;20148;-79
2023/05/12 03:32:02;;;;;;;67.90;26.63;;;11.50;99.90;;;;;;4993802;28;20072;-79
2023/05/12 03:34:50;;;;;;;86.35;28.40;;;11.50;99.90;;;;;;4994870;28;20054;-80
2023/05/12 03:37:37;;;;;;;78.25;28.48;;;11.50;99.90;;;;;;4993226;28;20799;-79
2023/05/12 03:40:28;;;;;;;68.28;24.83;;;11.50;99.90;;;;;;4994008;28;20089;-78
2023/05/12 03:43:14;;;;;;;67.35;25.92;;;11.50;99.90;;;;;;4994005;28;20058;-79
2023/05/12 03:46:00;;;;;;;64.90;26.88;;;11.50;99.90;;;;;;4997625;28;20053;-79
2023/05/12 03:48:46;;;;;;;80.15;28.25;;;11.50;99.90;;;;;;5011568;28;20054;-78
2023/05/12 03:51:33;;;;;;;78.25;27.40;;;11.50;99.90;;;;;;4997518;28;20049;-80
2023/05/12 03:54:19;;;;;;;74.53;27.95;;;11.50;99.90;;;;;;5010513;28;20053;-79
2023/05/12 03:57:05;;;;;;;71.63;27.10;;;11.50;99.90;;;;;;5011821;28;20061;-79
2023/05/12 03:59:54;;;;;;;76.18;27.65;;;11.60;99.90;;;;;;5011643;28;20049;-79
2023/05/12 04:02:40;;;;;;;68.55;27.67;;;11.60;99.90;;;;;;4994500;28;20058;-80
2023/05/12 04:05:27;;;;;;;71.55;29.63;;;11.60;99.90;;;;;;4994292;28;20057;-79
2023/05/12 04:08:13;;;;;;;86.28;31.25;;;11.60;99.90;;;;;;4981370;28;20045;-78
2023/05/12 04:11:02;;;;;;;70.88;29.17;;;11.60;99.90;;;;;;4993495;28;20053;-78
2023/05/12 04:13:51;;;;;;;75.38;29.95;;;11.60;99.90;;;;;;5010764;28;20064;-79
2023/05/12 04:16:39;;;;;;;73.88;28.20;;;11.60;99.90;;;;;;4992006;28;20050;-79
2023/05/12 04:19:25;;;;;;;79.05;30.83;;;11.60;99.90;;;;;;5010286;28;20061;-79
2023/05/12 04:22:12;;;;;;;77.85;30.20;;;11.70;99.90;;;;;;4992436;28;20049;-79
2023/05/12 04:24:58;;;;;;;97.53;31.35;;;11.70;99.90;;;;;;5012269;28;20057;-79
2023/05/12 04:27:44;;;;;;;91.88;29.63;;;11.70;99.90;;;;;;5010651;28;20120;-79
2023/05/12 04:30:31;;;;;;;72.30;28.65;;;11.70;99.90;;;;;;4994281;28;20049;-78
2023/05/12 04:33:17;;;;;;;73.80;29.58;;;11.80;99.90;;;;;;4993980;28;20108;-78
2023/05/12 04:36:04;;;;;;;70.88;30.23;;;11.80;99.90;;;;;;4981850;28;20577;-79
2023/05/12 04:38:50;;;;;;;79.60;33.13;;;11.80;99.90;;;;;;4993146;28;20057;-78
2023/05/12 04:41:38;;;;;;;77.05;31.25;;;11.90;99.90;;;;;;4980344;28;20557;-78
2023/05/12 04:44:25;;;;;;;74.55;30.50;;;11.90;99.90;;;;;;4993480;28;20053;-78
2023/05/12 04:47:13;;;;;;;63.17;28.88;;;11.90;99.90;;;;;;4996208;28;20060;-78
2023/05/12 04:49:59;;;;;;;70.30;29.38;;;12.00;99.90;;;;;;4993421;28;20050;-78
2023/05/12 04:52:46;;;;;;;81.15;30.75;;;12.00;99.90;;;;;;4979362;28;20056;-78
2023/05/12 04:55:38;;;;;;;73.05;29.30;;;12.10;99.90;;;;;;4973159;28;20553;-79
2023/05/12 04:58:24;;;;;;;65.45;28.27;;;12.20;99.90;;;;;;4972618;28;20062;-78
2023/05/12 05:01:12;;;;;;;73.85;31.17;;;12.30;99.90;;;;;;4975033;28;20050;-79
2023/05/12 05:03:58;;;;;;;64.50;29.85;;;12.30;99.90;;;;;;4959956;28;20051;-78
2023/05/12 05:06:44;;;;;;;65.95;30.38;;;12.40;99.90;;;;;;4972025;28;20121;-78
2023/05/12 05:09:30;;;;;;;68.72;31.10;;;12.50;99.90;;;;;;4977353;28;20050;-78
2023/05/12 05:12:17;;;;;;;71.95;30.55;;;12.50;99.90;;;;;;4990956;28;20093;-77
2023/05/12 05:15:05;;;;;;;76.28;29.88;;;12.60;99.90;;;;;;4973552;28;20054;-78
2023/05/12 05:17:51;;;;;;;57.35;28.05;;;12.60;99.90;;;;;;4973193;28;20135;-78
2023/05/12 05:20:37;;;;;;;79.07;30.33;;;12.70;99.90;;;;;;4976517;28;20050;-78
2023/05/12 05:23:23;;;;;;;76.68;33.28;;;12.70;99.90;;;;;;4991574;28;20058;-78
2023/05/12 05:26:10;;;;;;;56.78;29.40;;;12.80;99.90;;;;;;4973943;28;20043;-78
2023/05/12 05:28:57;;;;;;;68.45;32.22;;;12.90;99.90;;;;;;4973694;28;20092;-78
2023/05/12 05:31:43;;;;;;;66.88;29.70;;;13.00;99.90;;;;;;4973793;28;20051;-79
2023/05/12 05:34:29;;;;;;;54.22;26.90;;;13.20;99.90;;;;;;4990632;28;20082;-78
2023/05/12 05:37:16;;;;;;;60.20;29.08;;;13.30;99.90;;;;;;4973868;28;20195;-79
2023/05/12 05:40:03;;;;;;;51.13;27.30;;;13.50;99.90;;;;;;4994866;28;20050;-78
2023/05/12 05:42:49;;;;;;;60.45;30.20;;;13.60;99.90;;;;;;4962482;28;20490;-79
2023/05/12 05:45:36;;;;;;;54.65;28.90;;;13.60;99.90;;;;;;4977602;28;20093;-78
2023/05/12 05:48:22;;;;;;;58.50;27.65;;;13.70;99.90;;;;;;4980390;28;20136;-79
2023/05/12 05:51:13;;;;;;;55.08;26.95;;;13.80;99.90;;;;;;4980032;28;20061;-80
2023/05/12 05:54:03;;;;;;;56.03;26.88;;;13.80;99.90;;;;;;4977682;28;20052;-80
2023/05/12 05:56:49;;;;;;;63.58;27.42;;;13.70;99.90;;;;;;4962921;28;20056;-80
2023/05/12 05:59:35;;;;;;;45.65;24.80;;;13.70;99.90;;;;;;4976754;28;20566;-80
2023/05/12 06:02:22;;;;;;;51.83;25.88;;;13.60;99.90;;;;;;4977544;28;20050;-79
2023/05/12 06:05:08;;;;;;;51.30;25.50;;;13.60;99.90;;;;;;4994345;28;20050;-80
2023/05/12 06:07:54;;;;;;;51.53;26.67;;;13.50;99.90;;;;;;4962805;28;20628;-80
2023/05/12 06:10:47;;;;;;;52.17;26.25;;;13.50;99.90;;;;;;4980157;28;20054;-79
2023/05/12 06:13:33;;;;;;;51.83;23.67;;;13.50;99.90;;;;;;4976782;28;20054;-79
2023/05/12 06:16:20;;;;;;;57.03;25.52;;;13.40;99.90;;;;;;4979989;28;20403;-79
2023/05/12 06:19:10;;;;;;;43.47;22.95;;;13.50;99.90;;;;;;4949848;28;20058;-79
2023/05/12 06:21:58;;;;;;;47.20;25.08;;;13.50;99.90;;;;;;4977555;28;20142;-79
2023/05/12 06:24:44;;;;;;;41.42;25.00;;;13.50;99.90;;;;;;4949879;28;20058;-79
2023/05/12 06:27:30;;;;;;;61.97;27.48;;;13.50;99.90;;;;;;4976443;28;20058;-78
2023/05/12 06:30:17;;;;;;;49.78;28.48;;;13.50;99.90;;;;;;4977205;28;20066;-79
2023/05/12 06:33:03;;;;;;;45.42;25.63;;;13.60;99.90;;;;;;4949614;28;20112;-79
2023/05/12 06:35:49;;;;;;;46.45;26.88;;;13.50;99.90;;;;;;4992961;28;20097;-79
2023/05/12 06:38:35;;;;;;;53.08;28.60;;;13.50;99.90;;;;;;4992516;28;20054;-79
2023/05/12 06:41:23;;;;;;;51.70;28.92;;;13.60;99.90;;;;;;4993113;28;20050;-79
2023/05/12 06:44:13;;;;;;;50.17;27.73;;;13.60;99.90;;;;;;4978582;28;20108;-79
2023/05/12 06:46:59;;;;;;;46.90;26.65;;;13.60;99.90;;;;;;4993906;28;20046;-79
2023/05/12 06:49:45;;;;;;;52.22;31.05;;;13.70;99.90;;;;;;4991418;28;20526;-79
2023/05/12 06:52:31;;;;;;;53.92;31.05;;;13.70;99.90;;;;;;4992701;28;20109;-78
2023/05/12 06:55:19;;;;;;;57.08;30.00;;;13.70;99.90;;;;;;5001735;28;20119;-79
2023/05/12 06:58:05;;;;;;;49.50;28.58;;;13.80;99.90;;;;;;4981359;28;20095;-79
2023/05/12 07:00:53;;;;;;;54.35;29.95;;;13.80;99.90;;;;;;4995285;28;20104;-79
2023/05/12 07:03:39;;;;;;;54.47;30.35;;;13.90;99.90;;;;;;4997336;28;20090;-78
2023/05/12 07:06:29;;;;;;;51.42;30.65;;;13.90;99.90;;;;;;5012278;28;20449;-78
2023/05/12 07:09:17;;;;;;;53.92;32.10;;;14.00;99.90;;;;;;4981681;28;20544;-79
2023/05/12 07:12:04;;;;;;;52.17;28.73;;;14.00;99.90;;;;;;5011354;28;20144;-80
2023/05/12 07:14:50;;;;;;;56.97;28.83;;;14.00;99.90;;;;;;4995456;28;20135;-80
2023/05/12 07:17:37;;;;;;;50.03;28.27;;;14.00;99.90;;;;;;5012552;28;20139;-79
2023/05/12 07:20:23;;;;;;;49.97;28.52;;;14.10;99.90;;;;;;4996111;28;20050;-79
2023/05/12 07:23:09;;;;;;;50.83;29.40;;;14.20;99.90;;;;;;5011718;28;20100;-79
2023/05/12 07:25:55;;;;;;;49.53;29.95;;;14.20;99.90;;;;;;4996249;28;20050;-78
2023/05/12 07:28:41;;;;;;;52.97;30.45;;;14.30;99.90;;;;;;5010967;28;20140;-78
2023/05/12 07:31:28;;;;;;;48.70;27.58;;;14.40;99.90;;;;;;5011235;28;20513;-78
2023/05/12 07:34:14;;;;;;;57.25;30.13;;;14.50;99.90;;;;;;5011298;28;20181;-79
2023/05/12 07:37:02;;;;;;;50.67;28.88;;;14.60;99.90;;;;;;5009993;28;20061;-78
2023/05/12 07:39:48;;;;;;;52.30;29.85;;;14.80;99.90;;;;;;5011964;28;20148;-80
2023/05/12 07:42:35;;;;;;;47.78;29.77;;;14.90;99.90;;;;;;4994129;28;20069;-80
2023/05/12 07:45:22;;;;;;;51.17;31.75;;;14.90;99.90;;;;;;5012193;28;20057;-79
2023/05/12 07:48:10;;;;;;;50.40;29.02;;;15.00;99.90;;;;;;5011354;28;20241;-79
2023/05/12 07:50:56;;;;;;;40.92;28.25;;;15.10;99.90;;;;;;5010953;28;20843;-79
2023/05/12 07:53:42;;;;;;;46.58;29.63;;;15.20;99.90;;;;;;5011258;28;20046;-79
2023/05/12 07:56:28;;;;;;;48.80;29.85;;;15.20;99.90;;;;;;4993405;28;20050;-78
2023/05/12 07:59:14;;;;;;;45.47;26.98;;;15.30;99.90;;;;;;4997016;28;20133;-80
2023/05/12 08:02:01;;;;;;;46.30;28.17;;;15.30;99.90;;;;;;5010254;28;20050;-80
2023/05/12 08:04:49;;;;;;;41.13;27.27;;;15.30;99.90;;;;;;5002947;28;20057;-79
2023/05/12 08:07:36;;;;;;;43.53;28.30;;;15.30;99.90;;;;;;4992735;28;20061;-80
2023/05/12 08:10:26;;;;;;;45.10;29.88;;;15.20;99.90;;;;;;5010529;28;20506;-80
2023/05/12 08:13:12;;;;;;;39.75;27.15;;;15.20;99.90;;;;;;5010499;28;20408;-80
2023/05/12 08:15:58;;;;;;;42.97;27.85;;;15.20;99.90;;;;;;5010803;28;20124;-80
2023/05/12 08:18:44;;;;;;;40.08;24.30;;;15.20;99.90;;;;;;5010959;28;20092;-80
2023/05/12 08:21:31;;;;;;;49.15;30.13;;;15.30;99.90;;;;;;5010696;28;20140;-80
2023/05/12 08:24:17;;;;;;;40.58;28.08;;;15.30;99.90;;;;;;4994213;28;20062;-79
2023/05/12 08:27:04;;;;;;;39.55;27.63;;;15.30;99.90;;;;;;5011130;28;20512;-80
2023/05/12 08:29:50;;;;;;;38.90;25.17;;;15.40;99.90;;;;;;5009054;28;20085;-80
2023/05/12 08:32:36;;;;;;;50.65;31.00;;;15.50;99.90;;;;;;5010965;28;20132;-80
2023/05/12 08:35:25;;;;;;;40.75;27.00;;;15.60;99.90;;;;;;5010978;28;20049;-81
2023/05/12 08:38:11;;;;;;;43.45;27.60;;;15.70;99.90;;;;;;4993748;28;20085;-81
2023/05/12 08:41:03;;;;;;;42.25;27.48;;;15.80;99.90;;;;;;5011240;28;20498;-80
2023/05/12 08:43:51;;;;;;;38.75;25.75;;;15.90;99.90;;;;;;5010625;28;20517;-80
2023/05/12 08:46:38;;;;;;;45.78;28.25;;;16.00;99.90;;;;;;4992884;28;20049;-80
2023/05/12 08:49:25;;;;;;;44.05;27.52;;;16.20;99.90;;;;;;5011065;28;20060;-80
2023/05/12 08:52:13;;;;;;;44.35;28.35;;;16.40;99.90;;;;;;5011069;28;20057;-80
2023/05/12 08:55:00;;;;;;;41.50;28.42;;;16.60;99.90;;;;;;4973632;28;20057;-81
2023/05/12 08:57:47;;;;;;;40.67;26.80;;;16.90;99.90;;;;;;4991022;28;20145;-81
2023/05/12 09:00:37;;;;;;;44.28;28.85;;;17.10;99.90;;;;;;4991551;28;20054;-81
2023/05/12 09:03:23;;;;;;;41.40;27.52;;;17.30;99.90;;;;;;4973499;28;20058;-80
2023/05/12 09:06:10;;;;;;;41.15;27.92;;;17.60;99.90;;;;;;4973848;28;20552;-79
2023/05/12 09:08:57;;;;;;;40.60;27.00;;;17.90;99.90;;;;;;4991385;28;20065;-79
2023/05/12 09:11:44;;;;;;;40.50;26.10;;;18.10;99.90;;;;;;4974196;28;20074;-79
2023/05/12 09:14:34;;;;;;;36.60;25.77;;;18.40;99.90;;;;;;4994537;28;20045;-80
2023/05/12 09:17:21;;;;;;;32.58;24.17;;;18.60;99.90;;;;;;4977466;28;20072;-80
2023/05/12 09:20:09;;;;;;;41.30;25.75;;;18.80;99.90;;;;;;4994295;28;20145;-80
2023/05/12 09:22:57;;;;;;;35.65;24.10;;;18.90;99.90;;;;;;4977632;28;20054;-81
2023/05/12 09:25:44;;;;;;;32.35;23.45;;;19.10;99.90;;;;;;4994788;28;20050;-80
2023/05/12 09:28:37;;;;;;;50.72;24.52;;;19.40;99.90;;;;;;4994090;28;20517;-80
2023/05/12 09:31:24;;;;;;;34.20;22.02;;;19.70;99.90;;;;;;4977824;28;20054;-80
2023/05/12 09:34:11;;;;;;;32.17;20.55;;;19.90;99.90;;;;;;4994567;28;20057;-80
2023/05/12 09:37:05;;;;;;;34.53;20.77;;;20.10;99.90;;;;;;4977876;28;20046;-81
2023/05/12 09:40:01;;;;;;;29.67;20.13;;;20.40;99.90;;;;;;4976903;28;20773;-82
2023/05/12 09:42:48;;;;;;;31.25;20.35;;;20.40;99.90;;;;;;4994302;28;20526;-81
2023/05/12 09:45:35;;;;;;;30.60;20.00;;;20.50;99.90;;;;;;4993807;28;20414;-83
2023/05/12 09:48:22;;;;;;;30.38;19.25;;;20.70;99.90;;;;;;4976632;28;20109;-81
2023/05/12 09:51:09;;;;;;;26.35;18.60;;;20.60;99.90;;;;;;4995123;28;20105;-81
2023/05/12 09:53:56;;;;;;;29.70;17.88;;;20.50;99.90;;;;;;4977033;28;20403;-80
2023/05/12 09:56:42;;;;;;;28.70;17.33;;;20.60;99.90;;;;;;4994456;28;20053;-81
2023/05/12 09:59:35;;;;;;;26.73;17.83;;;20.60;99.90;;;;;;4994018;28;20045;-81
2023/05/12 10:02:21;;;;;;;23.35;16.50;;;20.70;99.90;;;;;;4993221;28;20081;-82
2023/05/12 10:05:18;;;;;;;20.90;14.38;;;20.90;99.90;;;;;;4994438;28;20065;-81
2023/05/12 10:08:06;;;;;;;25.02;15.40;;;21.40;99.90;;;;;;4993400;28;20042;-81
2023/05/12 10:10:55;;;;;;;24.67;15.02;;;21.70;99.90;;;;;;4993963;28;20046;-80
2023/05/12 10:13:42;;;;;;;22.00;15.63;;;22.10;99.90;;;;;;4993746;28;20060;-81
2023/05/12 10:16:28;;;;;;;20.35;13.30;;;22.10;99.90;;;;;;4977243;28;20050;-80
2023/05/12 10:19:16;;;;;;;21.45;13.90;;;22.10;99.90;;;;;;4993889;28;20047;-81
2023/05/12 10:22:04;;;;;;;20.27;13.00;;;22.20;99.90;;;;;;4976535;28;20054;-81
2023/05/12 10:24:53;;;;;;;19.10;13.50;;;22.20;99.90;;;;;;4976322;28;20051;-81
2023/05/12 10:27:40;;;;;;;22.33;13.80;;;22.40;99.90;;;;;;4963327;28;20050;-81
2023/05/12 10:30:26;;;;;;;19.17;13.65;;;22.60;99.90;;;;;;4976196;28;20161;-81
2023/05/12 10:33:14;;;;;;;17.55;13.73;;;22.90;99.90;;;;;;4979234;28;20057;-80
2023/05/12 10:36:02;;;;;;;20.58;13.57;;;23.20;99.90;;;;;;4949794;28;20061;-81
2023/05/12 10:38:53;;;;;;;19.95;13.13;;;23.20;99.90;;;;;;4966483;28;20050;-80
2023/05/12 10:41:42;;;;;;;22.15;13.85;;;23.10;99.90;;;;;;4963835;28;20058;-80
2023/05/12 10:44:28;;;;;;;15.88;11.27;;;23.00;99.90;;;;;;4993549;28;20046;-81
2023/05/12 10:47:14;;;;;;;19.88;12.52;;;22.90;99.90;;;;;;4979077;28;20042;-81
2023/05/12 10:50:01;;;;;;;19.45;12.93;;;22.90;99.90;;;;;;4993200;28;20507;-80
2023/05/12 10:52:57;;;;;;;17.88;11.85;;;23.10;99.90;;;;;;4978057;28;20062;-81
2023/05/12 10:55:48;;;;;;;17.70;12.18;;;23.00;99.90;;;;;;4994795;28;20062;-83
2023/05/12 10:58:34;;;;;;;17.52;12.02;;;23.20;99.90;;;;;;5011535;28;20046;-82
2023/05/12 11:01:24;;;;;;;20.83;11.23;;;23.10;99.90;;;;;;5012109;28;20053;-80
2023/05/12 11:04:16;;;;;;;15.57;11.05;;;23.40;99.90;;;;;;4969303;28;20509;-80
2023/05/12 11:07:05;;;;;;;21.33;13.30;;;23.40;99.90;;;;;;4982245;28;20050;-80
2023/05/12 11:09:51;;;;;;;17.05;11.00;;;23.60;99.90;;;;;;4981813;28;20081;-81
2023/05/12 11:12:37;;;;;;;16.05;10.95;;;23.60;99.90;;;;;;5012861;28;20108;-80
2023/05/12 11:15:24;;;;;;;22.20;12.23;;;23.70;99.90;;;;;;5010274;28;20072;-81
2023/05/12 11:18:11;;;;;;;15.38;9.77;;;23.50;99.90;;;;;;4994214;28;20410;-80
2023/05/12 11:20:58;;;;;;;19.92;10.85;;;23.70;99.90;;;;;;5011786;28;20096;-80
2023/05/12 11:23:49;;;;;;;17.13;9.43;;;23.80;99.90;;;;;;4993270;28;20085;-83
2023/05/12 11:26:35;;;;;;;16.65;11.38;;;23.80;99.90;;;;;;5011485;28;20145;-81
2023/05/12 11:29:21;;;;;;;17.00;9.90;;;23.90;99.90;;;;;;4994685;28;20089;-81
2023/05/12 11:32:09;;;;;;;15.45;9.30;;;24.00;99.90;;;;;;5011601;28;20087;-82
2023/05/12 11:35:10;;;;;;;17.33;10.55;;;24.00;99.90;;;;;;4994540;28;20086;-80
2023/05/12 11:37:56;;;;;;;13.25;8.38;;;23.90;99.90;;;;;;4994668;28;20056;-81
2023/05/12 11:40:43;;;;;;;13.45;9.82;;;24.00;99.90;;;;;;5011507;28;20046;-80
2023/05/12 11:43:29;;;;;;;14.07;9.30;;;23.90;99.90;;;;;;4993601;28;20057;-81
2023/05/12 11:46:25;;;;;;;14.60;9.35;;;24.30;99.90;;;;;;5010653;28;20054;-80
2023/05/12 11:49:14;;;;;;;10.77;8.75;;;24.80;99.90;;;;;;5012092;28;20054;-80
2023/05/12 11:52:01;;;;;;;13.02;8.10;;;24.80;99.80;;;;;;5010799;28;20050;-81
2023/05/12 11:55:00;;;;;;;12.52;7.80;;;25.00;99.70;;;;;;4981613;28;20053;-82
2023/05/12 11:58:03;;;;;;;14.02;8.18;;;25.10;98.80;;;;;;4993141;28;20107;-81
2023/05/12 12:00:49;;;;;;;12.55;8.25;;;25.00;98.60;;;;;;5010237;28;20571;-81
2023/05/12 12:03:45;;;;;;;13.00;7.63;;;24.90;98.10;;;;;;4994283;28;20085;-78
2023/05/12 12:06:42;;;;;;;11.82;7.43;;;25.20;96.50;;;;;;5009045;28;20053;-81
2023/05/12 12:09:39;;;;;;;10.80;6.88;;;25.50;96.40;;;;;;5010226;28;20060;-81
2023/05/12 12:12:25;;;;;;;10.68;7.10;;;25.60;95.70;;;;;;5011602;28;20123;-80
2023/05/12 12:15:12;;;;;;;13.25;7.03;;;25.70;95.60;;;;;;4979448;28;20490;-80
2023/05/12 12:17:58;;;;;;;12.65;6.60;;;25.90;95.80;;;;;;5011137;28;20045;-81
2023/05/12 12:20:45;;;;;;;12.38;7.50;;;26.00;95.10;;;;;;5010335;28;20060;-82
2023/05/12 12:23:31;;;;;;;10.38;7.28;;;26.10;95.10;;;;;;5010326;28;20054;-81
2023/05/12 12:26:19;;;;;;;12.13;7.15;;;25.80;94.50;;;;;;4993322;28;20418;-81
2023/05/12 12:29:05;;;;;;;10.88;7.28;;;25.90;93.90;;;;;;4993221;28;20065;-79
2023/05/12 12:31:51;;;;;;;11.43;6.50;;;26.10;93.00;;;;;;5009846;28;20119;-80
2023/05/12 12:34:37;;;;;;;9.85;6.22;;;26.30;93.30;;;;;;5010668;28;20046;-81
2023/05/12 12:37:24;;;;;;;10.50;6.45;;;26.90;93.40;;;;;;5010234;28;20137;-80
2023/05/12 12:40:10;;;;;;;10.05;6.70;;;26.80;93.40;;;;;;4992610;28;20116;-79
2023/05/12 12:42:56;;;;;;;14.05;6.53;;;27.00;92.40;;;;;;4993235;28;20116;-79
2023/05/12 12:45:42;;;;;;;8.18;5.68;;;27.00;91.60;;;;;;4994518;28;20116;-81
2023/05/12 12:48:30;;;;;;;10.52;6.50;;;27.40;91.90;;;;;;5008558;28;20050;-82
2023/05/12 12:51:16;;;;;;;12.20;7.53;;;27.40;90.50;;;;;;4992705;28;20097;-82
2023/05/12 12:54:03;;;;;;;10.88;7.57;;;27.00;89.10;;;;;;5010696;28;20050;-83
2023/05/12 12:56:49;;;;;;;12.48;6.60;;;26.50;89.90;;;;;;4992170;28;20049;-83
2023/05/12 12:59:35;;;;;;;10.98;6.93;;;26.50;90.10;;;;;;4992317;28;20079;-83
2023/05/12 13:02:21;;;;;;;8.82;6.78;;;26.40;90.00;;;;;;5010188;28;20057;-83
2023/05/12 13:05:07;;;;;;;13.20;7.78;;;26.40;90.30;;;;;;4993398;28;20049;-83
2023/05/12 13:07:54;;;;;;;9.82;6.07;;;26.70;89.00;;;;;;5011401;28;20046;-84
2023/05/12 13:10:40;;;;;;;12.00;6.82;;;26.80;89.90;;;;;;4992568;28;20056;-83
2023/05/12 13:13:26;;;;;;;13.48;6.10;;;26.90;88.20;;;;;;4993685;28;20144;-83
2023/05/12 13:16:12;;;;;;;9.10;6.15;;;27.20;88.60;;;;;;5009934;28;20049;-82
2023/05/12 13:18:58;;;;;;;9.25;5.25;;;27.40;88.10;;;;;;4992392;28;20490;-83
2023/05/12 13:21:44;;;;;;;12.20;7.10;;;27.80;87.10;;;;;;4992068;28;20054;-81
2023/05/12 13:24:30;;;;;;;12.32;6.63;;;28.10;85.70;;;;;;5010039;28;20061;-83
2023/05/12 13:27:16;;;;;;;8.32;6.05;;;28.10;84.60;;;;;;5009754;28;20056;-82
2023/05/12 13:30:06;;;;;;;9.85;6.10;;;28.50;84.80;;;;;;5009684;28;20056;-83
2023/05/12 13:32:52;;;;;;;8.68;6.10;;;28.90;82.70;;;;;;4995812;28;20060;-81
2023/05/12 13:35:38;;;;;;;17.92;8.57;;;29.10;79.90;;;;;;4991485;28;20050;-82
2023/05/12 13:38:25;;;;;;;11.98;6.93;;;28.60;79.00;;;;;;4992346;28;20058;-81
2023/05/12 13:41:11;;;;;;;14.10;6.82;;;28.70;78.60;;;;;;4991733;28;20050;-82
2023/05/12 13:43:57;;;;;;;10.95;7.05;;;29.10;78.80;;;;;;5010506;28;20065;-79
2023/05/12 13:46:43;;;;;;;10.88;7.47;;;29.20;76.70;;;;;;4992889;28;20061;-82
2023/05/12 13:49:29;;;;;;;9.30;6.28;;;29.60;74.70;;;;;;4991570;28;20112;-82
2023/05/12 13:52:15;;;;;;;9.73;7.22;;;29.70;74.50;;;;;;5010133;28;20144;-81
2023/05/12 13:55:02;;;;;;;10.27;6.60;;;30.00;72.80;;;;;;4991905;28;20061;-83
2023/05/12 13:57:48;;;;;;;10.38;7.68;;;30.30;71.30;;;;;;4991364;28;20197;-81
2023/05/12 14:00:35;;;;;;;13.57;7.38;;;30.50;71.20;;;;;;4981752;28;20053;-81
2023/05/12 14:03:21;;;;;;;11.73;6.05;;;30.30;69.00;;;;;;5012515;28;20057;-82
2023/05/12 14:06:07;;;;;;;12.82;5.90;;;30.20;69.40;;;;;;4995901;28;20137;-82
2023/05/12 14:08:53;;;;;;;10.77;6.13;;;30.30;70.40;;;;;;4982703;28;20453;-83
2023/05/12 14:11:39;;;;;;;13.07;6.72;;;30.50;69.70;;;;;;5012353;28;20054;-82